sensor_id;sensor_type;location;lat;lon;timestamp;pressure;altitude;pressure_sealevel;temperature
33267;BMP180;19638;49.080;11.896;2022-07-23T00:03:25;96389.00;;;22.30
33267;BMP180;19638;49.080;11.896;2022-07-23T00:07:29;96384.00;;;22.30
33267;BMP180;19638;49.080;11.896;2022-07-23T00:11:33;96389.00;;;22.20
33267;BMP180;19638;49.080;11.896;2022-07-23T00:15:37;96386.00;;;22.10
33267;BMP180;19638;49.080;11.896;2022-07-23T00:19:40;96377.00;;;22.10
33267;BMP180;19638;49.080;11.896;2022-07-23T00:23:43;96367.00;;;22.10
33267;BMP180;19638;49.080;11.896;2022-07-23T00:27:47;96356.00;;;22.10
33267;BMP180;19638;49.080;11.896;2022-07-23T00:31:51;96344.00;;;22.20
33267;BMP180;19638;49.080;11.896;2022-07-23T00:35:54;96335.00;;;22.20
33267;BMP180;19638;49.080;11.896;2022-07-23T00:39:57;96330.00;;;22.30
33267;BMP180;19638;49.080;11.896;2022-07-23T00:44:18;96325.00;;;22.20
33267;BMP180;19638;49.080;11.896;2022-07-23T00:48:21;96309.00;;;22.20
33267;BMP180;19638;49.080;11.896;2022-07-23T00:52:24;96296.00;;;22.20
33267;BMP180;19638;49.080;11.896;2022-07-23T00:56:29;96299.00;;;22.20
33267;BMP180;19638;49.080;11.896;2022-07-23T01:00:34;96333.00;;;22.10
33267;BMP180;19638;49.080;11.896;2022-07-23T01:04:37;96341.00;;;22.30
33267;BMP180;19638;49.080;11.896;2022-07-23T01:08:41;96334.00;;;22.50
33267;BMP180;19638;49.080;11.896;2022-07-23T01:12:45;96346.00;;;22.70
33267;BMP180;19638;49.080;11.896;2022-07-23T01:16:50;96328.00;;;22.90
33267;BMP180;19638;49.080;11.896;2022-07-23T01:20:53;96335.00;;;23.10
33267;BMP180;19638;49.080;11.896;2022-07-23T01:24:57;96327.00;;;23.30
33267;BMP180;19638;49.080;11.896;2022-07-23T01:29:01;96333.00;;;23.40
33267;BMP180;19638;49.080;11.896;2022-07-23T01:33:05;96335.00;;;23.50
33267;BMP180;19638;49.080;11.896;2022-07-23T01:37:08;96351.00;;;23.50
33267;BMP180;19638;49.080;11.896;2022-07-23T01:41:13;96344.00;;;23.60
33267;BMP180;19638;49.080;11.896;2022-07-23T01:45:16;96343.00;;;23.60
33267;BMP180;19638;49.080;11.896;2022-07-23T01:49:19;96349.00;;;23.50
33267;BMP180;19638;49.080;11.896;2022-07-23T01:53:22;96354.00;;;23.50
33267;BMP180;19638;49.080;11.896;2022-07-23T01:57:27;96359.00;;;23.40
33267;BMP180;19638;49.080;11.896;2022-07-23T02:01:30;96368.00;;;23.20
33267;BMP180;19638;49.080;11.896;2022-07-23T02:05:33;96369.00;;;22.90
33267;BMP180;19638;49.080;11.896;2022-07-23T02:09:37;96397.00;;;22.80
33267;BMP180;19638;49.080;11.896;2022-07-23T02:13:41;96414.00;;;22.50
33267;BMP180;19638;49.080;11.896;2022-07-23T02:17:45;96414.00;;;22.40
33267;BMP180;19638;49.080;11.896;2022-07-23T02:21:48;96424.00;;;22.30
33267;BMP180;19638;49.080;11.896;2022-07-23T02:25:51;96425.00;;;22.30
33267;BMP180;19638;49.080;11.896;2022-07-23T02:29:56;96430.00;;;22.20
33267;BMP180;19638;49.080;11.896;2022-07-23T02:33:59;96448.00;;;21.90
33267;BMP180;19638;49.080;11.896;2022-07-23T02:38:03;96491.00;;;21.40
33267;BMP180;19638;49.080;11.896;2022-07-23T02:42:06;96435.00;;;20.90
33267;BMP180;19638;49.080;11.896;2022-07-23T02:46:11;96406.00;;;20.60
33267;BMP180;19638;49.080;11.896;2022-07-23T02:50:14;96417.00;;;20.40
33267;BMP180;19638;49.080;11.896;2022-07-23T02:54:18;96434.00;;;20.10
33267;BMP180;19638;49.080;11.896;2022-07-23T02:58:21;96398.00;;;20.00
33267;BMP180;19638;49.080;11.896;2022-07-23T03:02:26;96412.00;;;19.90
33267;BMP180;19638;49.080;11.896;2022-07-23T03:06:32;96437.00;;;19.90
33267;BMP180;19638;49.080;11.896;2022-07-23T03:10:36;96443.00;;;19.90
33267;BMP180;19638;49.080;11.896;2022-07-23T03:14:39;96424.00;;;19.80
33267;BMP180;19638;49.080;11.896;2022-07-23T03:18:44;96426.00;;;19.90
33267;BMP180;19638;49.080;11.896;2022-07-23T03:22:48;96425.00;;;19.90
33267;BMP180;19638;49.080;11.896;2022-07-23T03:26:51;96418.00;;;19.90
33267;BMP180;19638;49.080;11.896;2022-07-23T03:30:54;96405.00;;;19.90
33267;BMP180;19638;49.080;11.896;2022-07-23T03:34:59;96403.00;;;19.90
33267;BMP180;19638;49.080;11.896;2022-07-23T03:39:02;96414.00;;;19.90
33267;BMP180;19638;49.080;11.896;2022-07-23T03:43:06;96385.00;;;19.90
33267;BMP180;19638;49.080;11.896;2022-07-23T03:47:09;96389.00;;;19.90
33267;BMP180;19638;49.080;11.896;2022-07-23T03:51:14;96394.00;;;19.90
33267;BMP180;19638;49.080;11.896;2022-07-23T03:55:17;96380.00;;;19.80
33267;BMP180;19638;49.080;11.896;2022-07-23T03:59:20;96365.00;;;19.90
33267;BMP180;19638;49.080;11.896;2022-07-23T04:03:24;96376.00;;;19.90
33267;BMP180;19638;49.080;11.896;2022-07-23T04:07:29;96367.00;;;19.90
33267;BMP180;19638;49.080;11.896;2022-07-23T04:11:32;96360.00;;;19.80
33267;BMP180;19638;49.080;11.896;2022-07-23T04:15:36;96368.00;;;19.80
33267;BMP180;19638;49.080;11.896;2022-07-23T04:19:40;96362.00;;;19.90
33267;BMP180;19638;49.080;11.896;2022-07-23T04:23:47;96359.00;;;20.00
33267;BMP180;19638;49.080;11.896;2022-07-23T04:27:51;96371.00;;;20.00
33267;BMP180;19638;49.080;11.896;2022-07-23T04:31:54;96371.00;;;20.10
33267;BMP180;19638;49.080;11.896;2022-07-23T04:35:57;96372.00;;;20.10
33267;BMP180;19638;49.080;11.896;2022-07-23T04:44:27;96369.00;;;20.20
33267;BMP180;19638;49.080;11.896;2022-07-23T04:48:31;96359.00;;;20.30
33267;BMP180;19638;49.080;11.896;2022-07-23T04:52:34;96364.00;;;20.40
33267;BMP180;19638;49.080;11.896;2022-07-23T04:56:39;96359.00;;;20.50
33267;BMP180;19638;49.080;11.896;2022-07-23T05:00:42;96353.00;;;20.50
33267;BMP180;19638;49.080;11.896;2022-07-23T05:04:45;96339.00;;;20.70
33267;BMP180;19638;49.080;11.896;2022-07-23T05:08:49;96354.00;;;20.80
33267;BMP180;19638;49.080;11.896;2022-07-23T05:12:53;96364.00;;;21.00
33267;BMP180;19638;49.080;11.896;2022-07-23T05:16:56;96381.00;;;21.20
33267;BMP180;19638;49.080;11.896;2022-07-23T05:21:00;96382.00;;;21.30
33267;BMP180;19638;49.080;11.896;2022-07-23T05:25:04;96380.00;;;21.60
33267;BMP180;19638;49.080;11.896;2022-07-23T05:29:09;96378.00;;;21.80
33267;BMP180;19638;49.080;11.896;2022-07-23T05:33:12;96375.00;;;22.00
33267;BMP180;19638;49.080;11.896;2022-07-23T05:37:15;96381.00;;;22.20
33267;BMP180;19638;49.080;11.896;2022-07-23T05:41:19;96379.00;;;22.40
33267;BMP180;19638;49.080;11.896;2022-07-23T05:45:23;96384.00;;;22.60
33267;BMP180;19638;49.080;11.896;2022-07-23T05:49:27;96379.00;;;22.70
33267;BMP180;19638;49.080;11.896;2022-07-23T05:53:31;96389.00;;;22.90
33267;BMP180;19638;49.080;11.896;2022-07-23T05:57:35;96395.00;;;23.30
33267;BMP180;19638;49.080;11.896;2022-07-23T06:01:40;96395.00;;;23.60
33267;BMP180;19638;49.080;11.896;2022-07-23T06:05:43;96389.00;;;23.90
33267;BMP180;19638;49.080;11.896;2022-07-23T06:09:46;96403.00;;;24.00
33267;BMP180;19638;49.080;11.896;2022-07-23T06:13:50;96402.00;;;24.10
33267;BMP180;19638;49.080;11.896;2022-07-23T06:17:55;96413.00;;;24.30
33267;BMP180;19638;49.080;11.896;2022-07-23T06:21:59;96419.00;;;24.50
33267;BMP180;19638;49.080;11.896;2022-07-23T06:26:02;96421.00;;;24.90
33267;BMP180;19638;49.080;11.896;2022-07-23T06:30:07;96431.00;;;24.90
33267;BMP180;19638;49.080;11.896;2022-07-23T06:34:11;96440.00;;;25.20
33267;BMP180;19638;49.080;11.896;2022-07-23T06:38:15;96435.00;;;25.40
33267;BMP180;19638;49.080;11.896;2022-07-23T06:42:20;96428.00;;;25.80
33267;BMP180;19638;49.080;11.896;2022-07-23T06:46:23;96438.00;;;26.50
33267;BMP180;19638;49.080;11.896;2022-07-23T06:50:28;96428.00;;;26.90
33267;BMP180;19638;49.080;11.896;2022-07-23T06:54:31;96438.00;;;27.00
33267;BMP180;19638;49.080;11.896;2022-07-23T06:58:35;96444.00;;;26.80
33267;BMP180;19638;49.080;11.896;2022-07-23T07:02:38;96447.00;;;26.60
33267;BMP180;19638;49.080;11.896;2022-07-23T07:06:42;96450.00;;;26.80
33267;BMP180;19638;49.080;11.896;2022-07-23T07:10:46;96452.00;;;27.40
33267;BMP180;19638;49.080;11.896;2022-07-23T07:14:49;96455.00;;;27.40
33267;BMP180;19638;49.080;11.896;2022-07-23T07:18:52;96463.00;;;27.50
33267;BMP180;19638;49.080;11.896;2022-07-23T07:22:57;96467.00;;;27.80
33267;BMP180;19638;49.080;11.896;2022-07-23T07:27:00;96472.00;;;28.40
33267;BMP180;19638;49.080;11.896;2022-07-23T07:31:03;96478.00;;;28.90
33267;BMP180;19638;49.080;11.896;2022-07-23T07:35:07;96474.00;;;29.20
33267;BMP180;19638;49.080;11.896;2022-07-23T07:39:12;96491.00;;;29.60
33267;BMP180;19638;49.080;11.896;2022-07-23T07:43:16;96479.00;;;30.20
33267;BMP180;19638;49.080;11.896;2022-07-23T07:47:19;96485.00;;;30.80
33267;BMP180;19638;49.080;11.896;2022-07-23T07:51:23;96498.00;;;30.80
33267;BMP180;19638;49.080;11.896;2022-07-23T07:55:27;96503.00;;;30.80
33267;BMP180;19638;49.080;11.896;2022-07-23T07:59:31;96497.00;;;31.30
33267;BMP180;19638;49.080;11.896;2022-07-23T08:03:34;96501.00;;;31.50
33267;BMP180;19638;49.080;11.896;2022-07-23T08:07:39;96514.00;;;31.70
33267;BMP180;19638;49.080;11.896;2022-07-23T08:11:43;96511.00;;;31.80
33267;BMP180;19638;49.080;11.896;2022-07-23T08:15:47;96512.00;;;32.50
33267;BMP180;19638;49.080;11.896;2022-07-23T08:19:50;96512.00;;;32.40
33267;BMP180;19638;49.080;11.896;2022-07-23T08:23:53;96505.00;;;32.60
33267;BMP180;19638;49.080;11.896;2022-07-23T08:27:58;96512.00;;;32.10
33267;BMP180;19638;49.080;11.896;2022-07-23T08:32:04;96520.00;;;31.40
33267;BMP180;19638;49.080;11.896;2022-07-23T08:36:27;96525.00;;;31.10
33267;BMP180;19638;49.080;11.896;2022-07-23T08:40:36;96527.00;;;31.20
33267;BMP180;19638;49.080;11.896;2022-07-23T08:44:46;96527.00;;;30.80
33267;BMP180;19638;49.080;11.896;2022-07-23T08:48:49;96534.00;;;30.90
33267;BMP180;19638;49.080;11.896;2022-07-23T08:52:53;96519.00;;;31.10
33267;BMP180;19638;49.080;11.896;2022-07-23T08:56:58;96517.00;;;31.00
33267;BMP180;19638;49.080;11.896;2022-07-23T09:01:03;96518.00;;;31.10
33267;BMP180;19638;49.080;11.896;2022-07-23T09:05:07;96519.00;;;31.10
33267;BMP180;19638;49.080;11.896;2022-07-23T09:09:18;96521.00;;;31.50
33267;BMP180;19638;49.080;11.896;2022-07-23T09:13:31;96519.00;;;32.30
33267;BMP180;19638;49.080;11.896;2022-07-23T09:17:39;96513.00;;;32.70
33267;BMP180;19638;49.080;11.896;2022-07-23T09:21:42;96504.00;;;33.10
33267;BMP180;19638;49.080;11.896;2022-07-23T09:25:45;96511.00;;;33.20
33267;BMP180;19638;49.080;11.896;2022-07-23T09:29:55;96498.00;;;33.20
33267;BMP180;19638;49.080;11.896;2022-07-23T09:34:12;96499.00;;;34.10
33267;BMP180;19638;49.080;11.896;2022-07-23T09:38:16;96499.00;;;34.60
33267;BMP180;19638;49.080;11.896;2022-07-23T09:42:21;96505.00;;;35.10
33267;BMP180;19638;49.080;11.896;2022-07-23T09:46:27;96512.00;;;35.60
33267;BMP180;19638;49.080;11.896;2022-07-23T09:50:32;96513.00;;;35.80
33267;BMP180;19638;49.080;11.896;2022-07-23T09:54:36;96518.00;;;36.40
33267;BMP180;19638;49.080;11.896;2022-07-23T09:58:40;96513.00;;;36.40
33267;BMP180;19638;49.080;11.896;2022-07-23T10:02:49;96510.00;;;36.60
33267;BMP180;19638;49.080;11.896;2022-07-23T10:06:55;96504.00;;;37.20
33267;BMP180;19638;49.080;11.896;2022-07-23T10:11:00;96507.00;;;37.80
33267;BMP180;19638;49.080;11.896;2022-07-23T10:15:04;96503.00;;;38.70
33267;BMP180;19638;49.080;11.896;2022-07-23T10:19:09;96504.00;;;38.90
33267;BMP180;19638;49.080;11.896;2022-07-23T10:23:19;96512.00;;;37.50
33267;BMP180;19638;49.080;11.896;2022-07-23T10:28:04;96497.00;;;36.10
33267;BMP180;19638;49.080;11.896;2022-07-23T10:32:24;96503.00;;;35.50
33267;BMP180;19638;49.080;11.896;2022-07-23T10:36:34;96516.00;;;36.70
33267;BMP180;19638;49.080;11.896;2022-07-23T10:40:54;96499.00;;;36.00
33267;BMP180;19638;49.080;11.896;2022-07-23T10:44:57;96499.00;;;34.90
33267;BMP180;19638;49.080;11.896;2022-07-23T10:49:26;96492.00;;;33.80
33267;BMP180;19638;49.080;11.896;2022-07-23T10:53:52;96496.00;;;32.80
33267;BMP180;19638;49.080;11.896;2022-07-23T10:57:57;96501.00;;;32.00
33267;BMP180;19638;49.080;11.896;2022-07-23T11:02:22;96501.00;;;31.40
33267;BMP180;19638;49.080;11.896;2022-07-23T11:07:06;96506.00;;;31.00
33267;BMP180;19638;49.080;11.896;2022-07-23T11:11:11;96510.00;;;31.10
33267;BMP180;19638;49.080;11.896;2022-07-23T11:15:16;96525.00;;;31.10
33267;BMP180;19638;49.080;11.896;2022-07-23T11:19:19;96517.00;;;31.20
33267;BMP180;19638;49.080;11.896;2022-07-23T11:23:23;96509.00;;;31.40
33267;BMP180;19638;49.080;11.896;2022-07-23T11:27:36;96497.00;;;33.00
33267;BMP180;19638;49.080;11.896;2022-07-23T11:31:52;96499.00;;;34.30
33267;BMP180;19638;49.080;11.896;2022-07-23T11:36:03;96495.00;;;35.10
33267;BMP180;19638;49.080;11.896;2022-07-23T11:40:09;96479.00;;;36.60
33267;BMP180;19638;49.080;11.896;2022-07-23T11:44:24;96484.00;;;37.10
33267;BMP180;19638;49.080;11.896;2022-07-23T11:48:30;96494.00;;;37.40
33267;BMP180;19638;49.080;11.896;2022-07-23T11:52:41;96500.00;;;36.20
33267;BMP180;19638;49.080;11.896;2022-07-23T11:56:55;96498.00;;;35.90
33267;BMP180;19638;49.080;11.896;2022-07-23T12:00:58;96498.00;;;35.20
33267;BMP180;19638;49.080;11.896;2022-07-23T12:05:04;96493.00;;;34.90
33267;BMP180;19638;49.080;11.896;2022-07-23T12:09:10;96504.00;;;34.70
33267;BMP180;19638;49.080;11.896;2022-07-23T12:13:16;96503.00;;;33.70
33267;BMP180;19638;49.080;11.896;2022-07-23T12:17:21;96497.00;;;33.40
33267;BMP180;19638;49.080;11.896;2022-07-23T12:21:25;96494.00;;;33.00
33267;BMP180;19638;49.080;11.896;2022-07-23T12:25:30;96484.00;;;32.70
33267;BMP180;19638;49.080;11.896;2022-07-23T12:29:34;96479.00;;;33.00
33267;BMP180;19638;49.080;11.896;2022-07-23T12:33:40;96476.00;;;33.60
33267;BMP180;19638;49.080;11.896;2022-07-23T12:37:46;96480.00;;;34.20
33267;BMP180;19638;49.080;11.896;2022-07-23T12:41:53;96475.00;;;34.40
33267;BMP180;19638;49.080;11.896;2022-07-23T12:46:03;96471.00;;;34.50
33267;BMP180;19638;49.080;11.896;2022-07-23T12:50:06;96477.00;;;33.80
33267;BMP180;19638;49.080;11.896;2022-07-23T12:54:11;96472.00;;;33.20
33267;BMP180;19638;49.080;11.896;2022-07-23T12:58:17;96474.00;;;32.90
33267;BMP180;19638;49.080;11.896;2022-07-23T13:02:21;96473.00;;;33.00
33267;BMP180;19638;49.080;11.896;2022-07-23T13:06:25;96478.00;;;33.50
33267;BMP180;19638;49.080;11.896;2022-07-23T13:10:29;96480.00;;;34.00
33267;BMP180;19638;49.080;11.896;2022-07-23T13:14:33;96494.00;;;34.50
33267;BMP180;19638;49.080;11.896;2022-07-23T13:18:36;96486.00;;;34.80
33267;BMP180;19638;49.080;11.896;2022-07-23T13:22:40;96496.00;;;34.90
33267;BMP180;19638;49.080;11.896;2022-07-23T13:26:45;96495.00;;;35.10
33267;BMP180;19638;49.080;11.896;2022-07-23T13:30:51;96488.00;;;35.50
33267;BMP180;19638;49.080;11.896;2022-07-23T13:34:55;96489.00;;;35.90
33267;BMP180;19638;49.080;11.896;2022-07-23T13:38:58;96492.00;;;35.40
33267;BMP180;19638;49.080;11.896;2022-07-23T13:43:04;96490.00;;;34.60
33267;BMP180;19638;49.080;11.896;2022-07-23T13:47:08;96504.00;;;33.90
33267;BMP180;19638;49.080;11.896;2022-07-23T13:51:12;96504.00;;;33.40
33267;BMP180;19638;49.080;11.896;2022-07-23T13:55:15;96505.00;;;33.00
33267;BMP180;19638;49.080;11.896;2022-07-23T13:59:20;96496.00;;;33.10
33267;BMP180;19638;49.080;11.896;2022-07-23T14:03:29;96490.00;;;34.60
33267;BMP180;19638;49.080;11.896;2022-07-23T14:07:32;96496.00;;;35.10
33267;BMP180;19638;49.080;11.896;2022-07-23T14:11:36;96491.00;;;35.60
33267;BMP180;19638;49.080;11.896;2022-07-23T14:15:42;96490.00;;;36.30
33267;BMP180;19638;49.080;11.896;2022-07-23T14:19:45;96492.00;;;37.20
33267;BMP180;19638;49.080;11.896;2022-07-23T14:23:49;96497.00;;;37.40
33267;BMP180;19638;49.080;11.896;2022-07-23T14:27:53;96505.00;;;36.60
33267;BMP180;19638;49.080;11.896;2022-07-23T14:31:57;96493.00;;;36.00
33267;BMP180;19638;49.080;11.896;2022-07-23T14:36:00;96506.00;;;35.40
33267;BMP180;19638;49.080;11.896;2022-07-23T14:40:05;96507.00;;;35.00
33267;BMP180;19638;49.080;11.896;2022-07-23T14:44:09;96494.00;;;34.80
33267;BMP180;19638;49.080;11.896;2022-07-23T14:48:14;96492.00;;;34.80
33267;BMP180;19638;49.080;11.896;2022-07-23T14:52:19;96497.00;;;34.20
33267;BMP180;19638;49.080;11.896;2022-07-23T14:56:22;96486.00;;;34.00
33267;BMP180;19638;49.080;11.896;2022-07-23T15:00:25;96479.00;;;34.50
33267;BMP180;19638;49.080;11.896;2022-07-23T15:04:30;96473.00;;;35.10
33267;BMP180;19638;49.080;11.896;2022-07-23T15:08:39;96483.00;;;35.70
33267;BMP180;19638;49.080;11.896;2022-07-23T15:12:42;96477.00;;;35.50
33267;BMP180;19638;49.080;11.896;2022-07-23T15:16:47;96475.00;;;35.50
33267;BMP180;19638;49.080;11.896;2022-07-23T15:20:56;96484.00;;;35.40
33267;BMP180;19638;49.080;11.896;2022-07-23T15:25:00;96488.00;;;35.40
33267;BMP180;19638;49.080;11.896;2022-07-23T15:29:04;96491.00;;;34.90
33267;BMP180;19638;49.080;11.896;2022-07-23T15:33:08;96497.00;;;34.60
33267;BMP180;19638;49.080;11.896;2022-07-23T15:37:23;96500.00;;;34.50
33267;BMP180;19638;49.080;11.896;2022-07-23T15:41:27;96499.00;;;34.40
33267;BMP180;19638;49.080;11.896;2022-07-23T15:45:31;96489.00;;;34.10
33267;BMP180;19638;49.080;11.896;2022-07-23T15:49:34;96497.00;;;33.70
33267;BMP180;19638;49.080;11.896;2022-07-23T15:53:38;96493.00;;;33.30
33267;BMP180;19638;49.080;11.896;2022-07-23T15:57:43;96478.00;;;33.00
33267;BMP180;19638;49.080;11.896;2022-07-23T16:01:47;96473.00;;;32.60
33267;BMP180;19638;49.080;11.896;2022-07-23T16:05:50;96476.00;;;32.40
33267;BMP180;19638;49.080;11.896;2022-07-23T16:09:55;96480.00;;;32.30
33267;BMP180;19638;49.080;11.896;2022-07-23T16:13:58;96479.00;;;32.30
33267;BMP180;19638;49.080;11.896;2022-07-23T16:18:02;96486.00;;;32.30
33267;BMP180;19638;49.080;11.896;2022-07-23T16:22:06;96487.00;;;32.20
33267;BMP180;19638;49.080;11.896;2022-07-23T16:26:11;96495.00;;;32.10
33267;BMP180;19638;49.080;11.896;2022-07-23T16:30:14;96490.00;;;32.80
33267;BMP180;19638;49.080;11.896;2022-07-23T16:34:17;96492.00;;;33.60
33267;BMP180;19638;49.080;11.896;2022-07-23T16:38:21;96493.00;;;34.30
33267;BMP180;19638;49.080;11.896;2022-07-23T16:42:25;96497.00;;;34.70
33267;BMP180;19638;49.080;11.896;2022-07-23T16:46:30;96490.00;;;34.60
33267;BMP180;19638;49.080;11.896;2022-07-23T16:50:33;96497.00;;;34.40
33267;BMP180;19638;49.080;11.896;2022-07-23T16:54:36;96500.00;;;33.60
33267;BMP180;19638;49.080;11.896;2022-07-23T16:58:41;96498.00;;;33.30
33267;BMP180;19638;49.080;11.896;2022-07-23T17:02:44;96498.00;;;32.80
33267;BMP180;19638;49.080;11.896;2022-07-23T17:06:48;96503.00;;;32.50
33267;BMP180;19638;49.080;11.896;2022-07-23T17:10:51;96514.00;;;32.20
33267;BMP180;19638;49.080;11.896;2022-07-23T17:14:57;96508.00;;;31.80
33267;BMP180;19638;49.080;11.896;2022-07-23T17:19:07;96506.00;;;31.90
33267;BMP180;19638;49.080;11.896;2022-07-23T17:23:10;96506.00;;;31.80
33267;BMP180;19638;49.080;11.896;2022-07-23T17:27:14;96507.00;;;31.50
33267;BMP180;19638;49.080;11.896;2022-07-23T17:31:20;96507.00;;;31.50
33267;BMP180;19638;49.080;11.896;2022-07-23T17:35:23;96512.00;;;31.60
33267;BMP180;19638;49.080;11.896;2022-07-23T17:39:27;96517.00;;;31.20
33267;BMP180;19638;49.080;11.896;2022-07-23T17:43:30;96521.00;;;30.90
33267;BMP180;19638;49.080;11.896;2022-07-23T17:47:35;96526.00;;;31.00
33267;BMP180;19638;49.080;11.896;2022-07-23T17:51:38;96532.00;;;30.70
33267;BMP180;19638;49.080;11.896;2022-07-23T17:55:41;96529.00;;;30.50
33267;BMP180;19638;49.080;11.896;2022-07-23T17:59:45;96530.00;;;30.30
33267;BMP180;19638;49.080;11.896;2022-07-23T18:03:49;96534.00;;;29.90
33267;BMP180;19638;49.080;11.896;2022-07-23T18:07:53;96541.00;;;29.60
33267;BMP180;19638;49.080;11.896;2022-07-23T18:11:58;96539.00;;;29.20
33267;BMP180;19638;49.080;11.896;2022-07-23T18:16:01;96544.00;;;28.90
33267;BMP180;19638;49.080;11.896;2022-07-23T18:20:08;96550.00;;;28.70
33267;BMP180;19638;49.080;11.896;2022-07-23T18:24:11;96552.00;;;28.50
33267;BMP180;19638;49.080;11.896;2022-07-23T18:28:14;96548.00;;;28.30
33267;BMP180;19638;49.080;11.896;2022-07-23T18:32:18;96558.00;;;28.10
33267;BMP180;19638;49.080;11.896;2022-07-23T18:36:22;96558.00;;;27.90
33267;BMP180;19638;49.080;11.896;2022-07-23T18:40:26;96566.00;;;27.80
33267;BMP180;19638;49.080;11.896;2022-07-23T18:44:29;96563.00;;;27.70
33267;BMP180;19638;49.080;11.896;2022-07-23T18:48:32;96572.00;;;27.50
33267;BMP180;19638;49.080;11.896;2022-07-23T18:52:42;96576.00;;;27.30
33267;BMP180;19638;49.080;11.896;2022-07-23T18:56:45;96591.00;;;26.90
33267;BMP180;19638;49.080;11.896;2022-07-23T19:00:48;96592.00;;;26.60
33267;BMP180;19638;49.080;11.896;2022-07-23T19:04:52;96598.00;;;26.20
33267;BMP180;19638;49.080;11.896;2022-07-23T19:08:56;96602.00;;;25.80
33267;BMP180;19638;49.080;11.896;2022-07-23T19:13:07;96609.00;;;25.50
33267;BMP180;19638;49.080;11.896;2022-07-23T19:17:10;96621.00;;;25.20
33267;BMP180;19638;49.080;11.896;2022-07-23T19:21:14;96623.00;;;24.90
33267;BMP180;19638;49.080;11.896;2022-07-23T19:25:19;96628.00;;;24.70
33267;BMP180;19638;49.080;11.896;2022-07-23T19:29:22;96636.00;;;24.50
33267;BMP180;19638;49.080;11.896;2022-07-23T19:33:26;96647.00;;;24.40
33267;BMP180;19638;49.080;11.896;2022-07-23T19:37:29;96649.00;;;24.20
33267;BMP180;19638;49.080;11.896;2022-07-23T19:41:34;96649.00;;;24.00
33267;BMP180;19638;49.080;11.896;2022-07-23T19:45:37;96658.00;;;23.80
33267;BMP180;19638;49.080;11.896;2022-07-23T19:49:42;96663.00;;;23.70
33267;BMP180;19638;49.080;11.896;2022-07-23T19:53:46;96652.00;;;23.50
33267;BMP180;19638;49.080;11.896;2022-07-23T19:57:52;96652.00;;;23.40
33267;BMP180;19638;49.080;11.896;2022-07-23T20:01:57;96647.00;;;23.30
33267;BMP180;19638;49.080;11.896;2022-07-23T20:06:00;96651.00;;;23.20
33267;BMP180;19638;49.080;11.896;2022-07-23T20:10:04;96658.00;;;23.10
33267;BMP180;19638;49.080;11.896;2022-07-23T20:14:09;96662.00;;;23.10
33267;BMP180;19638;49.080;11.896;2022-07-23T20:18:13;96659.00;;;23.00
33267;BMP180;19638;49.080;11.896;2022-07-23T20:22:17;96654.00;;;23.00
33267;BMP180;19638;49.080;11.896;2022-07-23T20:26:20;96659.00;;;22.90
33267;BMP180;19638;49.080;11.896;2022-07-23T20:30:25;96657.00;;;22.90
33267;BMP180;19638;49.080;11.896;2022-07-23T20:34:28;96665.00;;;22.80
33267;BMP180;19638;49.080;11.896;2022-07-23T20:38:32;96670.00;;;22.80
33267;BMP180;19638;49.080;11.896;2022-07-23T20:42:35;96679.00;;;22.70
33267;BMP180;19638;49.080;11.896;2022-07-23T20:46:40;96683.00;;;22.50
33267;BMP180;19638;49.080;11.896;2022-07-23T20:50:44;96683.00;;;22.30
33267;BMP180;19638;49.080;11.896;2022-07-23T20:54:47;96683.00;;;22.10
33267;BMP180;19638;49.080;11.896;2022-07-23T20:58:50;96688.00;;;21.90
33267;BMP180;19638;49.080;11.896;2022-07-23T21:02:56;96688.00;;;21.70
33267;BMP180;19638;49.080;11.896;2022-07-23T21:06:59;96691.00;;;21.60
33267;BMP180;19638;49.080;11.896;2022-07-23T21:11:03;96691.00;;;21.50
33267;BMP180;19638;49.080;11.896;2022-07-23T21:15:07;96690.00;;;21.40
33267;BMP180;19638;49.080;11.896;2022-07-23T21:19:12;96697.00;;;21.40
33267;BMP180;19638;49.080;11.896;2022-07-23T21:23:15;96701.00;;;21.30
33267;BMP180;19638;49.080;11.896;2022-07-23T21:27:18;96698.00;;;21.30
33267;BMP180;19638;49.080;11.896;2022-07-23T21:31:21;96700.00;;;21.20
33267;BMP180;19638;49.080;11.896;2022-07-23T21:35:26;96686.00;;;21.20
33267;BMP180;19638;49.080;11.896;2022-07-23T21:39:29;96703.00;;;21.10
33267;BMP180;19638;49.080;11.896;2022-07-23T21:43:33;96712.00;;;21.10
33267;BMP180;19638;49.080;11.896;2022-07-23T21:47:36;96708.00;;;21.00
33267;BMP180;19638;49.080;11.896;2022-07-23T21:51:41;96698.00;;;20.90
33267;BMP180;19638;49.080;11.896;2022-07-23T21:55:47;96710.00;;;21.00
33267;BMP180;19638;49.080;11.896;2022-07-23T21:59:50;96708.00;;;21.00
33267;BMP180;19638;49.080;11.896;2022-07-23T22:03:54;96708.00;;;21.10
33267;BMP180;19638;49.080;11.896;2022-07-23T22:07:59;96710.00;;;21.20
33267;BMP180;19638;49.080;11.896;2022-07-23T22:12:02;96710.00;;;21.20
33267;BMP180;19638;49.080;11.896;2022-07-23T22:16:06;96710.00;;;21.30
33267;BMP180;19638;49.080;11.896;2022-07-23T22:20:10;96710.00;;;21.30
33267;BMP180;19638;49.080;11.896;2022-07-23T22:24:16;96712.00;;;21.30
33267;BMP180;19638;49.080;11.896;2022-07-23T22:28:19;96715.00;;;21.40
33267;BMP180;19638;49.080;11.896;2022-07-23T22:32:23;96716.00;;;21.50
33267;BMP180;19638;49.080;11.896;2022-07-23T22:36:26;96709.00;;;21.60
33267;BMP180;19638;49.080;11.896;2022-07-23T22:40:31;96717.00;;;21.70
33267;BMP180;19638;49.080;11.896;2022-07-23T22:44:34;96718.00;;;21.80
33267;BMP180;19638;49.080;11.896;2022-07-23T22:48:37;96711.00;;;21.60
33267;BMP180;19638;49.080;11.896;2022-07-23T22:52:41;96718.00;;;21.20
33267;BMP180;19638;49.080;11.896;2022-07-23T22:56:45;96723.00;;;20.90
33267;BMP180;19638;49.080;11.896;2022-07-23T23:00:49;96725.00;;;20.80
33267;BMP180;19638;49.080;11.896;2022-07-23T23:04:52;96721.00;;;20.70
33267;BMP180;19638;49.080;11.896;2022-07-23T23:08:55;96724.00;;;20.60
33267;BMP180;19638;49.080;11.896;2022-07-23T23:13:00;96716.00;;;20.50
33267;BMP180;19638;49.080;11.896;2022-07-23T23:17:03;96711.00;;;20.40